createdAt,value
2018-12-08T00:03:49.174Z,100.00
2018-12-08T00:22:42.861Z,100.00
2018-12-08T00:25:28.592Z,100.00
2018-12-08T00:31:17.676Z,100.00
2018-12-08T00:34:06.824Z,100.00
2018-12-08T00:37:06.184Z,100.00
2018-12-08T00:42:44.021Z,100.00
2018-12-08T00:54:07.442Z,100.00
2018-12-08T00:57:06.771Z,100.00
2018-12-08T00:59:52.403Z,100.00
2018-12-08T01:02:53.616Z,100.00
2018-12-08T01:05:42.988Z,100.00
2018-12-08T01:08:28.266Z,100.00
2018-12-08T01:11:08.533Z,100.00
2018-12-08T01:13:54.094Z,100.00
2018-12-08T01:16:33.230Z,100.00
2018-12-08T01:19:18.754Z,100.00
2018-12-08T01:21:57.924Z,100.00
2018-12-08T01:24:44.214Z,100.00
2018-12-08T01:27:23.805Z,100.00
2018-12-08T01:30:03.305Z,100.00
2018-12-08T01:32:49.013Z,100.00
2018-12-08T01:35:29.147Z,100.00
2018-12-08T01:38:14.868Z,100.00
2018-12-08T01:40:55.075Z,100.00
2018-12-08T01:43:35.588Z,100.00
2018-12-08T01:46:03.130Z,100.00
2018-12-08T01:48:30.662Z,100.00
2018-12-08T01:50:58.328Z,100.00
2018-12-08T01:53:38.592Z,100.00
2018-12-08T01:56:06.164Z,100.00
2018-12-08T01:58:33.688Z,100.00
2018-12-08T02:01:13.048Z,100.00
2018-12-08T02:03:40.624Z,100.00
2018-12-08T02:06:08.157Z,100.00
2018-12-08T02:08:48.511Z,100.00
2018-12-08T02:11:16.085Z,100.00
2018-12-08T02:13:56.495Z,100.00
2018-12-08T02:16:36.989Z,100.00
2018-12-08T02:19:17.579Z,100.00
2018-12-08T02:21:57.738Z,100.00
2018-12-08T02:24:25.263Z,100.00
2018-12-08T02:26:52.788Z,100.00
2018-12-08T02:29:20.344Z,100.00
2018-12-08T02:31:47.877Z,100.00
2018-12-08T02:34:15.505Z,100.00
2018-12-08T02:36:43.041Z,100.00
2018-12-08T02:39:10.620Z,100.00
2018-12-08T02:41:50.985Z,100.00
2018-12-08T02:44:31.459Z,100.00
2018-12-08T02:47:11.876Z,100.00
2018-12-08T02:49:39.452Z,100.00
2018-12-08T02:52:19.860Z,100.00
2018-12-08T02:54:47.438Z,100.00
2018-12-08T02:57:14.981Z,100.00
2018-12-08T02:59:42.560Z,100.00
2018-12-08T03:02:22.748Z,100.00
2018-12-08T03:04:50.286Z,100.00
2018-12-08T03:07:30.672Z,100.00
2018-12-08T03:10:11.002Z,100.00
2018-12-08T03:12:38.581Z,100.00
2018-12-08T03:15:19.014Z,100.00
2018-12-08T03:17:46.624Z,100.00
2018-12-08T03:20:27.059Z,100.00
2018-12-08T03:22:54.631Z,100.00
2018-12-08T03:25:22.168Z,100.00
2018-12-08T03:27:49.731Z,100.00
2018-12-08T03:30:30.382Z,100.00
2018-12-08T03:33:10.679Z,100.00
2018-12-08T03:35:51.207Z,100.00
2018-12-08T03:38:31.620Z,100.00
2018-12-08T03:41:12.999Z,100.00
2018-12-08T03:43:53.565Z,100.00
2018-12-08T03:46:34.899Z,100.00
2018-12-08T03:49:15.312Z,100.00
2018-12-08T03:51:55.781Z,100.00
2018-12-08T03:54:36.244Z,100.00
2018-12-08T03:57:16.674Z,100.00
2018-12-08T03:59:57.287Z,100.00
2018-12-08T04:02:37.550Z,100.00
2018-12-08T04:05:17.934Z,100.00
2018-12-08T04:07:58.274Z,100.00
2018-12-08T04:10:39.675Z,100.00
2018-12-08T04:13:20.153Z,100.00
2018-12-08T04:16:00.612Z,100.00
2018-12-08T04:18:41.087Z,100.00
2018-12-08T04:21:21.516Z,100.00
2018-12-08T04:24:01.969Z,100.00
2018-12-08T04:26:43.301Z,100.00
2018-12-08T04:29:10.884Z,100.00
2018-12-08T04:31:38.455Z,100.00
2018-12-08T04:34:06.017Z,100.00
2018-12-08T04:36:46.510Z,100.00
2018-12-08T04:39:14.039Z,100.00
2018-12-08T04:41:41.607Z,100.00
2018-12-08T04:44:09.176Z,100.00
2018-12-08T04:49:27.121Z,100.00
2018-12-08T04:55:04.892Z,100.00
2018-12-08T04:57:50.276Z,100.00
2018-12-08T05:00:49.650Z,100.00
2018-12-08T05:03:35.082Z,100.00
2018-12-08T05:09:01.953Z,100.00
2018-12-08T05:12:01.141Z,100.00
2018-12-08T05:17:39.074Z,100.00
2018-12-08T05:20:24.636Z,100.00
2018-12-08T05:23:23.736Z,100.00
2018-12-08T05:26:09.287Z,100.00
2018-12-08T05:29:08.641Z,100.00
2018-12-08T05:37:22.950Z,100.00
2018-12-08T05:40:02.401Z,100.00
2018-12-08T05:42:47.939Z,100.00
2018-12-08T05:45:27.347Z,100.00
2018-12-08T05:48:13.774Z,100.00
2018-12-08T05:59:20.157Z,100.00
2018-12-08T06:05:12.123Z,100.00
2018-12-08T06:07:58.827Z,100.00
2018-12-08T06:13:19.654Z,100.00
2018-12-08T06:36:27.177Z,100.00
2018-12-08T06:39:26.477Z,100.00
2018-12-08T06:44:56.984Z,100.00
2018-12-08T06:47:24.710Z,100.00
2018-12-08T06:49:52.429Z,100.00
2018-12-08T09:58:21.599Z,40.00
2018-12-08T10:00:49.204Z,42.98
2018-12-08T10:03:47.718Z,43.87
2018-12-08T10:09:36.640Z,43.64
2018-12-08T10:15:30.305Z,46.96
2018-12-08T10:18:16.953Z,43.20
2018-12-08T10:20:44.620Z,43.76
2018-12-08T10:26:20.799Z,45.67
2018-12-08T10:32:09.597Z,50.41
2018-12-08T10:37:56.451Z,60.24
2018-12-08T10:40:30.369Z,62.05
2018-12-08T10:43:07.833Z,61.25
2018-12-08T10:45:35.364Z,61.81
2018-12-08T10:48:02.876Z,62.86
2018-12-08T10:50:30.436Z,64.68
2018-12-08T10:52:57.953Z,66.85
2018-12-08T10:55:25.505Z,64.98
2018-12-08T10:57:53.006Z,62.63
2018-12-08T11:00:26.059Z,69.47
2018-12-08T11:02:53.591Z,70.19
2018-12-08T11:05:21.246Z,76.98
2018-12-08T11:07:56.117Z,78.21
2018-12-08T11:10:33.856Z,84.79
2018-12-08T11:13:09.767Z,88.71
2018-12-08T11:15:49.858Z,89.34
2018-12-08T11:18:27.643Z,87.89
2018-12-08T11:20:55.172Z,88.07
2018-12-08T11:23:22.710Z,85.51
2018-12-08T11:25:50.327Z,85.85
2018-12-08T11:28:17.843Z,84.53
2018-12-08T11:30:55.432Z,85.19
2018-12-08T11:33:22.973Z,85.53
2018-12-08T11:35:57.399Z,86.57
2018-12-08T11:38:30.293Z,85.89
2018-12-08T11:41:07.899Z,85.97
2018-12-08T11:43:45.804Z,87.07
2018-12-08T11:46:23.369Z,85.20
2018-12-08T11:48:50.891Z,82.93
2018-12-08T11:51:18.443Z,86.07
2018-12-08T11:53:52.257Z,89.55
2018-12-08T11:56:32.857Z,92.32
2018-12-08T11:59:10.020Z,85.64
2018-12-08T12:04:37.829Z,88.56
2018-12-08T12:07:12.572Z,90.06
2018-12-08T12:09:50.389Z,90.32
2018-12-08T12:12:29.001Z,84.83
2018-12-08T12:18:03.911Z,84.55
2018-12-08T12:20:51.892Z,89.13
2018-12-08T12:23:29.596Z,90.77
2018-12-08T12:26:03.517Z,86.72
2018-12-08T12:28:41.001Z,90.73
2018-12-08T12:31:16.707Z,91.32
2018-12-08T12:33:54.415Z,92.16
2018-12-08T12:36:34.829Z,94.27
2018-12-08T12:39:02.404Z,94.81
2018-12-08T12:41:39.569Z,94.74
2018-12-08T12:47:09.785Z,97.06
2018-12-08T12:49:45.759Z,100.00
2018-12-08T12:52:23.552Z,100.00
2018-12-08T12:54:58.254Z,100.00
2018-12-08T12:57:35.835Z,100.00
2018-12-08T13:00:15.535Z,100.00
2018-12-08T13:02:49.697Z,100.00
2018-12-08T13:05:28.308Z,100.00
2018-12-08T13:08:06.384Z,100.00
2018-12-08T13:10:41.259Z,100.00
2018-12-08T13:13:19.069Z,100.00
2018-12-08T13:15:59.065Z,100.00
2018-12-08T13:18:35.115Z,100.00
2018-12-08T13:21:11.058Z,100.00
2018-12-08T13:23:48.667Z,100.00
2018-12-08T13:26:26.558Z,100.00
2018-12-08T13:29:02.429Z,100.00
2018-12-08T13:31:42.893Z,100.00
2018-12-08T13:34:22.702Z,100.00
2018-12-08T13:36:59.929Z,100.00
2018-12-08T13:42:38.824Z,100.00
2018-12-08T13:45:17.030Z,100.00
2018-12-08T13:47:54.481Z,100.00
2018-12-08T18:17:07.771Z,100.00
2018-12-08T18:19:35.328Z,100.00
2018-12-08T18:22:03.143Z,100.00
2018-12-08T18:24:31.664Z,100.00
2018-12-08T18:26:59.436Z,100.00
2018-12-08T18:29:27.050Z,100.00
2018-12-08T18:31:54.760Z,100.00
2018-12-08T18:34:23.518Z,100.00
2018-12-08T18:36:51.106Z,100.00
2018-12-08T18:39:19.059Z,100.00
2018-12-08T18:41:46.678Z,100.00
2018-12-08T18:44:14.289Z,100.00
2018-12-08T18:46:42.925Z,100.00
2018-12-08T18:49:10.650Z,100.00
2018-12-08T18:51:40.068Z,100.00
2018-12-08T18:54:08.615Z,100.00
2018-12-08T18:56:36.889Z,100.00
2018-12-08T18:59:04.500Z,100.00
2018-12-08T19:01:32.049Z,100.00
2018-12-08T19:03:59.631Z,100.00
2018-12-08T19:06:28.047Z,100.00
2018-12-08T19:08:55.796Z,100.00
2018-12-08T19:11:23.421Z,100.00
2018-12-08T19:13:51.099Z,100.00
2018-12-08T19:16:18.640Z,100.00
2018-12-08T19:18:46.229Z,100.00
2018-12-08T19:21:13.810Z,100.00
2018-12-08T19:23:43.789Z,100.00
2018-12-08T19:26:10.949Z,100.00
2018-12-08T19:28:39.150Z,100.00
2018-12-08T19:31:06.750Z,100.00
2018-12-08T19:33:34.307Z,100.00
2018-12-08T19:36:02.807Z,100.00
2018-12-08T19:38:30.346Z,100.00
2018-12-08T19:40:58.015Z,100.00
2018-12-08T19:43:28.006Z,100.00
2018-12-08T19:45:55.573Z,100.00
2018-12-08T19:48:23.928Z,100.00
2018-12-08T19:50:51.465Z,100.00
2018-12-08T19:53:19.042Z,100.00
2018-12-08T19:55:46.608Z,100.00
2018-12-08T19:58:14.195Z,100.00
2018-12-08T20:00:41.744Z,100.00
2018-12-08T20:03:10.194Z,100.00
2018-12-08T20:05:37.735Z,100.00
2018-12-08T20:08:05.333Z,100.00
2018-12-08T20:10:32.882Z,100.00
2018-12-08T20:13:01.284Z,100.00
2018-12-08T20:15:28.862Z,100.00
2018-12-08T20:17:56.407Z,100.00
2018-12-08T20:20:23.989Z,100.00
2018-12-08T20:22:51.538Z,100.00
2018-12-08T20:25:19.065Z,100.00
2018-12-08T20:27:46.656Z,100.00
2018-12-08T20:30:14.201Z,100.00
2018-12-08T20:32:41.825Z,100.00
2018-12-08T20:35:09.420Z,100.00
2018-12-08T20:37:36.965Z,100.00
2018-12-08T20:40:04.824Z,100.00
2018-12-08T20:42:33.326Z,100.00
2018-12-08T20:45:00.889Z,100.00
2018-12-08T20:47:28.498Z,100.00
2018-12-08T20:49:56.038Z,100.00
2018-12-08T20:52:24.669Z,100.00
2018-12-08T20:54:52.283Z,100.00
2018-12-08T20:57:19.831Z,100.00
2018-12-08T20:59:47.428Z,100.00
2018-12-08T21:02:14.993Z,100.00
2018-12-08T21:04:42.553Z,100.00
2018-12-08T21:07:10.150Z,100.00
2018-12-08T21:09:37.767Z,100.00
2018-12-08T21:12:06.681Z,100.00
2018-12-08T21:14:34.539Z,100.00
2018-12-08T21:17:02.097Z,100.00
2018-12-08T21:19:29.673Z,100.00
2018-12-08T21:21:57.236Z,100.00
2018-12-08T21:24:25.274Z,100.00
2018-12-08T21:26:53.025Z,100.00
2018-12-08T21:29:20.640Z,100.00
2018-12-08T21:31:48.202Z,100.00
2018-12-08T21:34:15.744Z,100.00
2018-12-08T21:36:43.319Z,100.00
2018-12-08T21:39:10.860Z,100.00
2018-12-08T21:41:38.426Z,100.00
2018-12-08T21:44:05.965Z,100.00
2018-12-08T21:46:34.512Z,100.00
2018-12-08T21:49:02.054Z,100.00
2018-12-08T21:51:29.663Z,100.00
2018-12-08T21:53:58.138Z,100.00
2018-12-08T21:56:25.723Z,100.00
2018-12-08T21:58:54.221Z,100.00
2018-12-08T22:01:21.774Z,100.00
2018-12-08T22:03:49.369Z,100.00
2018-12-08T22:06:16.917Z,100.00
2018-12-08T22:08:44.463Z,100.00
2018-12-08T22:11:12.058Z,100.00
2018-12-08T22:13:39.623Z,100.00
2018-12-08T22:16:07.160Z,100.00
2018-12-08T22:18:34.697Z,100.00
2018-12-08T22:21:02.288Z,100.00
2018-12-08T22:23:29.826Z,100.00
2018-12-08T22:25:57.417Z,100.00
2018-12-08T22:28:25.008Z,100.00
2018-12-08T22:30:52.565Z,100.00
2018-12-08T22:33:21.039Z,100.00
2018-12-08T22:35:48.622Z,100.00
2018-12-08T22:38:16.227Z,100.00
2018-12-08T22:40:43.761Z,100.00
2018-12-08T22:43:11.367Z,100.00
2018-12-08T22:45:38.962Z,100.00
2018-12-08T22:48:06.569Z,100.00
2018-12-08T22:50:34.105Z,100.00
2018-12-08T22:53:01.668Z,100.00
2018-12-08T22:55:29.257Z,100.00
2018-12-08T22:57:56.854Z,100.00
2018-12-08T23:00:42.991Z,100.00
2018-12-08T23:03:10.549Z,100.00
2018-12-08T23:05:38.113Z,100.00
2018-12-08T23:08:05.711Z,100.00
2018-12-08T23:10:33.270Z,100.00
2018-12-08T23:13:00.888Z,100.00
2018-12-08T23:15:28.442Z,100.00
2018-12-08T23:17:56.855Z,100.00
2018-12-08T23:20:25.202Z,100.00
2018-12-08T23:22:53.738Z,100.00
2018-12-08T23:25:21.337Z,100.00
2018-12-08T23:27:48.882Z,100.00
2018-12-08T23:30:17.229Z,100.00
2018-12-08T23:32:44.797Z,100.00
2018-12-08T23:35:12.392Z,100.00
2018-12-08T23:37:40.130Z,100.00
2018-12-08T23:40:07.719Z,100.00
2018-12-08T23:42:35.424Z,100.00
2018-12-08T23:45:03.003Z,100.00
2018-12-08T23:47:30.699Z,100.00
2018-12-08T23:49:58.288Z,100.00
2018-12-08T23:52:25.883Z,100.00
2018-12-08T23:54:53.425Z,100.00
2018-12-08T23:57:21.007Z,100.00
2018-12-08T23:59:49.420Z,100.00
